Airfield :
LOGIN :

Register | Disclaimer

   EN    FR    IT 

 










Legend :    VFR   Marginal VFR   IFR   Intensive IFR   Very Intensive IFR
Visi :
Ceiling :
>= 8 km
>= 3000ft
5 to 8 km
1000 to 3000 ft
1500m to 5 km
500 to 1000 ft
800 to 1500m
200 to 500 ft
< 800m
< 200 ft
Symbols :   Thunderstorms  Fog  Heavy snow  Heavy precipitations  Wind > 20 kt
SIGMETs :     Misc.  Thunderstorms  Icing  Turbulence  Mountain Waves  Volcanic Ashes







- Airport Elevation : 14 ft
- IATA code : BRE


EDDW - Bremen Neuenland

CURRENT METAR :
  • 100120Z 27014KT 9999 FEW024 04/02 Q1009

EXPIRED METARs :
  • 100050Z 28013KT 9999 FEW024 05/02 Q1009
  • 100020Z 27014KT 9999 SCT028 04/02 Q1009
  • 092350Z 29015G25KT 9999 SCT035 05/02 Q1008
  • 092320Z 29016KT 9999 SCT035 05/02 Q1008
  • 092250Z 28013KT 9999 SCT035 05/02 Q1007

TAF TAF EDDW
Valid from the 10 at 00:00 until the 11 at 00:00 UTC


092300Z 1000/1024 28015G25KT 9999 SCT030
PROB30
TEMPO 1000/1006 SHRA SCT020CB
TEMPO 1006/1020 30020G35KT 4000 SHRA BKN013CB
PROB30
TEMPO 1012/1017 -TSRAGS
No reported NOTAMs for that airfield.



MET'MAP, your aeronautical weather chart ! - Copyright ORBIFLY December 2007 - Disclaimer

ORBIFLY MET'MAP TEAM :

Programming & Development : Alexandra Zaïnal
Concept & Development : Baudouin d'Aumeries
Co-Development & Prog : Marc-Olivier Méhu
Technical & hardware support : Manuel Goepfert

Contact : metmap@orbifly.com




SOURCES & CREDITS :

   NOAA